Time;durP1;ratioP1;P1;durP2;ratioP2;P2;SDS_P1;SDS_P2;PMS_P1;PMS_P2;Temp;Humidity;BMP_temperature;BMP_pressure;BME280_temperature;BME280_humidity;BME280_pressure;Samples;Min_cycle;Max_cycle;Signal;HPM_P1;HPM_P2
2023/10/24 00:01:55;;;;;;;17.87;16.67;;;11.00;99.90;;;;;;4933462;29;20204;-79
2023/10/24 00:04:22;;;;;;;17.57;16.27;;;11.00;99.90;;;;;;4902420;29;20204;-79
2023/10/24 00:06:48;;;;;;;17.73;16.53;;;11.00;99.90;;;;;;4898941;29;20236;-78
2023/10/24 00:09:15;;;;;;;18.10;16.70;;;11.00;99.90;;;;;;4893610;29;20746;-79
2023/10/24 00:11:43;;;;;;;17.90;16.70;;;10.90;99.90;;;;;;4894357;29;20578;-79
2023/10/24 00:14:10;;;;;;;17.07;15.97;;;10.90;99.90;;;;;;4902006;29;20197;-79
2023/10/24 00:16:37;;;;;;;17.97;16.63;;;10.90;99.90;;;;;;4919005;29;20223;-79
2023/10/24 00:19:04;;;;;;;18.27;16.90;;;10.80;99.90;;;;;;4919568;29;20614;-79
2023/10/24 00:21:31;;;;;;;18.53;17.13;;;10.80;99.90;;;;;;4893509;29;20205;-79
2023/10/24 00:23:57;;;;;;;18.33;17.13;;;10.80;99.90;;;;;;4901016;29;20204;-79
2023/10/24 00:26:24;;;;;;;18.27;16.97;;;10.70;99.90;;;;;;4910637;29;20572;-79
2023/10/24 00:28:54;;;;;;;17.60;16.30;;;10.70;99.90;;;;;;4918343;29;20227;-79
2023/10/24 00:31:21;;;;;;;20.20;18.70;;;10.70;99.90;;;;;;4932668;29;20204;-79
2023/10/24 00:33:47;;;;;;;18.47;16.97;;;10.70;99.90;;;;;;4918555;29;20200;-79
2023/10/24 00:36:14;;;;;;;16.90;15.80;;;10.70;99.90;;;;;;4918154;29;20274;-79
2023/10/24 00:38:42;;;;;;;17.23;16.10;;;10.80;99.90;;;;;;4898407;29;20673;-79
2023/10/24 00:41:09;;;;;;;17.47;16.27;;;10.80;99.90;;;;;;4890210;29;20204;-79
2023/10/24 00:43:36;;;;;;;17.57;16.37;;;10.80;99.90;;;;;;4901491;29;20208;-79
2023/10/24 00:46:04;;;;;;;17.80;16.50;;;10.80;99.90;;;;;;4912537;29;20215;-79
2023/10/24 00:48:33;;;;;;;17.00;15.83;;;10.80;99.90;;;;;;4900510;29;20247;-79
2023/10/24 00:51:00;;;;;;;17.63;16.43;;;10.80;99.90;;;;;;4911693;29;20698;-79
2023/10/24 00:53:27;;;;;;;17.73;16.43;;;10.80;99.90;;;;;;4900875;29;20625;-79
2023/10/24 00:55:55;;;;;;;18.00;16.90;;;10.80;99.90;;;;;;4914134;29;20697;-79
2023/10/24 00:58:22;;;;;;;17.07;15.87;;;10.80;99.90;;;;;;4897999;29;20204;-79
2023/10/24 01:00:49;;;;;;;18.33;16.93;;;10.80;99.90;;;;;;4910190;29;20681;-79
2023/10/24 01:03:17;;;;;;;17.37;16.17;;;10.80;99.90;;;;;;4900708;29;20200;-79
2023/10/24 01:05:44;;;;;;;17.67;16.47;;;10.80;99.90;;;;;;4909885;29;20605;-79
2023/10/24 01:08:11;;;;;;;17.47;16.27;;;10.80;99.90;;;;;;4895667;29;20253;-79
2023/10/24 01:10:38;;;;;;;16.90;15.80;;;10.90;99.90;;;;;;4899015;29;20657;-79
2023/10/24 01:13:07;;;;;;;18.17;16.87;;;10.90;99.90;;;;;;4900940;29;20203;-79
2023/10/24 01:15:34;;;;;;;18.03;16.83;;;10.90;99.90;;;;;;4898076;29;20212;-79
2023/10/24 01:18:03;;;;;;;17.60;16.50;;;10.90;99.90;;;;;;4900715;29;20193;-79
2023/10/24 01:20:31;;;;;;;18.20;16.90;;;10.90;99.90;;;;;;4932380;29;20203;-79
2023/10/24 01:22:59;;;;;;;17.73;16.60;;;10.90;99.90;;;;;;4900901;29;20265;-79
2023/10/24 01:25:29;;;;;;;18.30;16.97;;;10.90;99.90;;;;;;4917442;29;20607;-79
2023/10/24 01:27:56;;;;;;;17.83;16.53;;;10.80;99.90;;;;;;4917543;29;20197;-79
2023/10/24 01:30:24;;;;;;;17.90;16.60;;;10.80;99.90;;;;;;4900707;29;20211;-80
2023/10/24 01:32:51;;;;;;;18.07;16.87;;;10.80;99.90;;;;;;4914979;29;20205;-79
2023/10/24 01:35:18;;;;;;;17.50;16.20;;;10.90;99.90;;;;;;4901087;29;20719;-79
2023/10/24 01:37:45;;;;;;;16.73;15.63;;;10.90;99.90;;;;;;4898035;29;20272;-79
2023/10/24 01:40:14;;;;;;;17.10;15.90;;;10.90;99.90;;;;;;4896423;29;20208;-79
2023/10/24 01:42:41;;;;;;;17.17;16.07;;;10.90;99.90;;;;;;4900840;29;20212;-79
2023/10/24 01:45:08;;;;;;;18.17;16.87;;;10.90;99.90;;;;;;4924696;29;20209;-79
2023/10/24 01:47:35;;;;;;;17.37;16.27;;;10.80;99.90;;;;;;4892575;29;20228;-79
2023/10/24 01:50:02;;;;;;;17.80;16.63;;;10.90;99.90;;;;;;4931989;29;20209;-79
2023/10/24 01:52:29;;;;;;;16.77;15.77;;;10.90;99.90;;;;;;4900497;29;20628;-79
2023/10/24 01:54:56;;;;;;;18.10;16.90;;;10.90;99.90;;;;;;4913704;29;20197;-79
2023/10/24 01:57:24;;;;;;;17.77;16.57;;;10.90;99.90;;;;;;4914059;29;20204;-79
2023/10/24 01:59:51;;;;;;;18.40;17.20;;;11.00;99.90;;;;;;4892613;29;20232;-78
2023/10/24 02:02:18;;;;;;;18.17;16.80;;;10.90;99.90;;;;;;4897247;29;20293;-79
2023/10/24 02:04:45;;;;;;;17.90;16.73;;;10.90;99.90;;;;;;4918100;29;20197;-79
2023/10/24 02:07:12;;;;;;;19.10;17.63;;;10.90;99.90;;;;;;4900241;29;20229;-80
2023/10/24 02:09:40;;;;;;;18.60;17.30;;;10.90;99.90;;;;;;4900303;29;20292;-79
2023/10/24 02:12:08;;;;;;;17.90;16.80;;;11.00;99.90;;;;;;4898139;29;20204;-80
2023/10/24 02:14:36;;;;;;;16.90;15.80;;;11.00;99.90;;;;;;4902103;29;20215;-79
2023/10/24 02:17:03;;;;;;;17.07;15.97;;;10.90;99.90;;;;;;4903549;29;20220;-79
2023/10/24 02:19:30;;;;;;;17.50;16.30;;;11.00;99.90;;;;;;4900729;29;20247;-79
2023/10/24 02:21:58;;;;;;;18.57;17.27;;;10.90;99.90;;;;;;4903417;29;20209;-79
2023/10/24 02:24:25;;;;;;;18.13;16.90;;;10.90;99.90;;;;;;4904233;29;20205;-79
2023/10/24 02:26:52;;;;;;;19.23;18.00;;;10.90;99.90;;;;;;4903815;29;20256;-79
2023/10/24 02:29:18;;;;;;;17.50;16.40;;;10.90;99.90;;;;;;4920439;29;20200;-79
2023/10/24 02:31:47;;;;;;;16.70;15.67;;;10.90;99.90;;;;;;4903224;29;20209;-79
2023/10/24 02:34:13;;;;;;;18.70;17.40;;;10.90;99.90;;;;;;4928712;29;20215;-79
2023/10/24 02:36:40;;;;;;;18.27;17.07;;;10.90;99.90;;;;;;4919015;29;20213;-79
2023/10/24 02:39:07;;;;;;;18.67;17.23;;;10.90;99.90;;;;;;4903124;29;20206;-79
2023/10/24 02:44:27;;;;;;;18.30;17.03;;;10.90;99.90;;;;;;4919967;29;20269;-79
2023/10/24 02:46:56;;;;;;;18.73;17.43;;;10.90;99.90;;;;;;4903055;29;20208;-79
2023/10/24 02:49:24;;;;;;;17.67;16.53;;;10.90;99.90;;;;;;4912305;29;20573;-78
2023/10/24 02:51:51;;;;;;;18.43;17.20;;;10.90;99.90;;;;;;4899161;29;20209;-76
2023/10/24 02:54:18;;;;;;;18.67;17.27;;;10.90;99.90;;;;;;4917838;29;20243;-77
2023/10/24 02:56:44;;;;;;;18.27;16.97;;;10.90;99.90;;;;;;4913560;29;20228;-77
2023/10/24 02:59:12;;;;;;;17.67;16.50;;;10.90;99.90;;;;;;4898808;29;20203;-77
2023/10/24 03:01:39;;;;;;;18.20;17.00;;;10.90;99.90;;;;;;4891354;29;20256;-77
2023/10/24 03:04:07;;;;;;;17.70;16.50;;;10.80;99.90;;;;;;4888504;29;20205;-77
2023/10/24 03:06:34;;;;;;;19.00;17.70;;;10.80;99.90;;;;;;4900643;29;20238;-77
2023/10/24 03:09:02;;;;;;;17.30;16.20;;;10.80;99.90;;;;;;4910196;29;20616;-77
2023/10/24 03:11:28;;;;;;;18.70;17.50;;;10.80;99.90;;;;;;4902809;29;20198;-76
2023/10/24 03:13:56;;;;;;;18.17;16.97;;;10.80;99.90;;;;;;4897278;29;20212;-77
2023/10/24 03:16:23;;;;;;;18.30;17.10;;;10.80;99.90;;;;;;4901291;29;20224;-80
2023/10/24 03:18:51;;;;;;;18.70;17.40;;;10.80;99.90;;;;;;4909355;29;20585;-81
2023/10/24 03:21:35;;;;;;;18.40;17.10;;;10.80;99.90;;;;;;4896556;29;20216;-81
2023/10/24 03:24:11;;;;;;;18.63;17.33;;;10.90;99.90;;;;;;4903565;29;20204;-79
2023/10/24 03:26:38;;;;;;;18.20;17.00;;;10.80;99.90;;;;;;4900944;29;20236;-79
2023/10/24 03:29:05;;;;;;;20.23;18.93;;;10.80;99.90;;;;;;4920641;29;20201;-78
2023/10/24 03:31:32;;;;;;;21.13;19.67;;;10.80;99.90;;;;;;4899468;29;20196;-80
2023/10/24 03:33:59;;;;;;;18.67;17.47;;;10.80;99.90;;;;;;4896991;29;20212;-79
2023/10/24 03:36:31;;;;;;;20.23;19.03;;;10.80;99.90;;;;;;4921629;29;20224;-80
2023/10/24 03:38:57;;;;;;;20.53;19.33;;;10.80;99.90;;;;;;4913688;29;20204;-78
2023/10/24 03:41:24;;;;;;;18.37;17.07;;;10.80;99.90;;;;;;4919020;29;20208;-78
2023/10/24 03:43:51;;;;;;;18.40;17.20;;;10.80;99.90;;;;;;4900854;29;20196;-78
2023/10/24 03:46:18;;;;;;;18.97;17.60;;;10.70;99.90;;;;;;4920360;29;20599;-78
2023/10/24 03:48:45;;;;;;;18.50;17.20;;;10.70;99.90;;;;;;4919364;29;20207;-78
2023/10/24 03:51:12;;;;;;;18.47;17.23;;;10.70;99.90;;;;;;4920023;29;20653;-78
2023/10/24 03:53:40;;;;;;;18.77;17.57;;;10.70;99.90;;;;;;4913713;29;20196;-79
2023/10/24 03:56:07;;;;;;;19.03;17.83;;;10.70;99.90;;;;;;4921161;29;20299;-79
2023/10/24 03:58:34;;;;;;;18.50;17.30;;;10.70;99.90;;;;;;4903346;29;20202;-79
2023/10/24 04:01:05;;;;;;;19.70;18.50;;;10.70;99.90;;;;;;4920257;29;20213;-78
2023/10/24 04:03:31;;;;;;;19.17;17.87;;;10.70;99.90;;;;;;4900395;29;20210;-78
2023/10/24 04:05:58;;;;;;;18.43;17.20;;;10.60;99.90;;;;;;4911577;29;20259;-78
2023/10/24 04:08:25;;;;;;;18.23;17.13;;;10.60;99.90;;;;;;4901915;29;20219;-78
2023/10/24 04:10:53;;;;;;;19.13;17.83;;;10.60;99.90;;;;;;4901434;29;20578;-78
2023/10/24 04:13:20;;;;;;;20.60;19.20;;;10.60;99.90;;;;;;4934277;29;20211;-78
2023/10/24 04:15:47;;;;;;;18.47;17.30;;;10.60;99.90;;;;;;4920518;29;20231;-78
2023/10/24 04:18:14;;;;;;;18.80;17.60;;;10.60;99.90;;;;;;4918802;29;20200;-78
2023/10/24 04:20:44;;;;;;;18.70;17.43;;;10.60;99.90;;;;;;4925944;29;20207;-79
2023/10/24 04:23:14;;;;;;;19.03;17.83;;;10.60;99.90;;;;;;4894413;29;20214;-80
2023/10/24 04:25:41;;;;;;;19.47;18.17;;;10.60;99.90;;;;;;4894698;29;20256;-80
2023/10/24 04:28:09;;;;;;;20.57;19.17;;;10.60;99.90;;;;;;4919276;29;20572;-80
2023/10/24 04:30:39;;;;;;;19.77;18.37;;;10.60;99.90;;;;;;4919962;29;20219;-80
2023/10/24 04:33:06;;;;;;;18.87;17.60;;;10.60;99.90;;;;;;4901318;29;20627;-81
2023/10/24 04:35:33;;;;;;;19.00;17.80;;;10.60;99.90;;;;;;4924309;29;20223;-81
2023/10/24 04:38:00;;;;;;;19.87;18.33;;;10.60;99.90;;;;;;4903714;29;20208;-81
2023/10/24 04:40:28;;;;;;;20.03;18.73;;;10.60;99.90;;;;;;4896128;29;20276;-80
2023/10/24 04:42:55;;;;;;;19.90;18.60;;;10.60;99.90;;;;;;4901631;29;20208;-81
2023/10/24 04:45:23;;;;;;;19.20;18.00;;;10.60;99.90;;;;;;4933075;29;20219;-80
2023/10/24 04:47:50;;;;;;;19.87;18.63;;;10.60;99.90;;;;;;4909880;29;20226;-80
2023/10/24 04:50:17;;;;;;;19.60;18.30;;;10.60;99.90;;;;;;4896733;29;20207;-79
2023/10/24 04:52:43;;;;;;;18.23;17.13;;;10.60;99.90;;;;;;4902845;29;20211;-78
2023/10/24 04:55:10;;;;;;;19.13;17.83;;;10.60;99.90;;;;;;4899551;29;20205;-78
2023/10/24 04:57:37;;;;;;;19.73;18.43;;;10.60;99.90;;;;;;4920095;29;20211;-78
2023/10/24 05:00:06;;;;;;;19.03;17.73;;;10.60;99.90;;;;;;4902576;29;20208;-77
2023/10/24 05:02:34;;;;;;;19.50;18.20;;;10.60;99.90;;;;;;4920323;29;20200;-79
2023/10/24 05:05:01;;;;;;;20.10;18.80;;;10.60;99.90;;;;;;4902800;29;20256;-77
2023/10/24 05:07:28;;;;;;;19.07;17.63;;;10.60;99.90;;;;;;4903040;29;20213;-77
2023/10/24 05:09:54;;;;;;;18.93;17.70;;;10.60;99.90;;;;;;4918895;29;20205;-77
2023/10/24 05:12:21;;;;;;;20.13;18.63;;;10.60;99.90;;;;;;4920001;29;20203;-77
2023/10/24 05:14:48;;;;;;;18.90;17.60;;;10.60;99.90;;;;;;4902718;29;20287;-78
2023/10/24 05:17:15;;;;;;;19.10;17.80;;;10.60;99.90;;;;;;4934222;29;20232;-78
2023/10/24 05:19:43;;;;;;;19.17;17.87;;;10.60;99.90;;;;;;4920019;29;20192;-78
2023/10/24 05:22:11;;;;;;;19.50;18.20;;;10.60;99.90;;;;;;4933059;29;20209;-77
2023/10/24 05:24:39;;;;;;;19.50;18.20;;;10.60;99.90;;;;;;4919027;29;20728;-78
2023/10/24 05:27:06;;;;;;;19.13;17.93;;;10.60;99.90;;;;;;4895786;29;20720;-79
2023/10/24 05:29:33;;;;;;;18.27;17.10;;;10.60;99.90;;;;;;4920122;29;20615;-78
2023/10/24 05:32:00;;;;;;;18.37;17.13;;;10.60;99.90;;;;;;4923301;29;20625;-78
2023/10/24 05:34:27;;;;;;;19.33;17.93;;;10.60;99.90;;;;;;4901332;29;20263;-77
2023/10/24 05:36:55;;;;;;;18.77;17.50;;;10.60;99.90;;;;;;4899614;29;20251;-79
2023/10/24 05:39:24;;;;;;;19.10;17.80;;;10.60;99.90;;;;;;4918779;29;20201;-79
2023/10/24 05:41:51;;;;;;;18.93;17.73;;;10.60;99.90;;;;;;4914935;29;20325;-80
2023/10/24 05:44:18;;;;;;;19.03;17.73;;;10.60;99.90;;;;;;4910772;29;20216;-79
2023/10/24 05:46:44;;;;;;;19.27;17.93;;;10.70;99.90;;;;;;4896616;29;20330;-79
2023/10/24 05:49:11;;;;;;;19.53;18.23;;;10.70;99.90;;;;;;4898107;29;20225;-80
2023/10/24 05:51:38;;;;;;;19.73;18.43;;;10.70;99.90;;;;;;4913054;29;20214;-80
2023/10/24 05:54:07;;;;;;;19.07;17.87;;;10.70;99.90;;;;;;4898077;29;20291;-81
2023/10/24 05:56:34;;;;;;;18.57;17.37;;;10.60;99.90;;;;;;4898351;29;20296;-81
2023/10/24 05:59:09;;;;;;;19.17;17.97;;;10.60;99.90;;;;;;4897818;29;20306;-82
2023/10/24 06:01:39;;;;;;;19.10;17.70;;;10.60;99.90;;;;;;4897141;29;20204;-81
2023/10/24 06:04:08;;;;;;;19.07;17.60;;;10.70;99.90;;;;;;4914361;29;20212;-81
2023/10/24 06:06:35;;;;;;;18.77;17.57;;;10.60;99.90;;;;;;4914740;29;20248;-82
2023/10/24 06:09:37;;;;;;;18.80;17.63;;;10.70;99.90;;;;;;4914527;29;20238;-80
2023/10/24 06:15:49;;;;;;;18.10;16.80;;;10.70;99.90;;;;;;4788718;29;20238;-80
2023/10/24 06:18:18;;;;;;;17.83;16.73;;;10.70;99.90;;;;;;4823112;29;20294;-80
2023/10/24 06:20:45;;;;;;;18.53;17.30;;;10.80;99.90;;;;;;4914883;29;20208;-80
2023/10/24 06:23:12;;;;;;;19.30;17.97;;;10.70;99.90;;;;;;4909434;29;20208;-80
2023/10/24 06:25:39;;;;;;;18.97;17.70;;;10.80;99.90;;;;;;4913860;29;20246;-81
2023/10/24 06:28:06;;;;;;;18.60;17.37;;;10.80;99.90;;;;;;4897038;29;20324;-80
2023/10/24 06:30:33;;;;;;;18.47;17.17;;;10.80;99.90;;;;;;4896833;29;20685;-81
2023/10/24 06:33:01;;;;;;;18.70;17.40;;;10.80;99.90;;;;;;4912292;29;20220;-79
2023/10/24 06:35:28;;;;;;;19.10;17.80;;;10.80;99.90;;;;;;4897946;29;20229;-80
2023/10/24 06:37:56;;;;;;;18.17;16.93;;;10.80;99.90;;;;;;4897530;29;20201;-79
2023/10/24 06:40:52;;;;;;;18.00;16.80;;;10.80;99.90;;;;;;4897753;29;20208;-84
2023/10/24 06:43:39;;;;;;;18.17;17.00;;;10.90;99.90;;;;;;4914827;29;20235;-78
2023/10/24 06:46:08;;;;;;;18.57;17.33;;;10.90;99.90;;;;;;4914681;29;20228;-82
2023/10/24 06:48:36;;;;;;;18.23;16.97;;;10.90;99.90;;;;;;4911289;29;20976;-81
2023/10/24 06:51:03;;;;;;;18.13;16.93;;;10.90;99.90;;;;;;4915619;29;20295;-81
2023/10/24 06:53:30;;;;;;;18.93;17.70;;;10.90;99.90;;;;;;4898325;29;20209;-79
2023/10/24 06:56:01;;;;;;;18.37;17.17;;;10.90;99.90;;;;;;4916091;29;20228;-81
2023/10/24 06:58:28;;;;;;;18.30;17.00;;;11.00;99.90;;;;;;4899273;29;20196;-81
2023/10/24 07:00:55;;;;;;;18.30;17.00;;;11.00;99.90;;;;;;4899113;29;20212;-80
2023/10/24 07:03:22;;;;;;;17.20;16.10;;;11.10;99.90;;;;;;4916527;29;20207;-80
2023/10/24 07:05:54;;;;;;;17.70;16.60;;;11.10;99.90;;;;;;4920314;29;20226;-80
2023/10/24 07:08:22;;;;;;;17.90;16.70;;;11.10;99.90;;;;;;4914497;29;20768;-80
2023/10/24 07:10:49;;;;;;;17.53;16.33;;;11.10;99.90;;;;;;4920603;29;20200;-79
2023/10/24 07:13:17;;;;;;;17.17;15.97;;;11.20;99.90;;;;;;4912659;29;20578;-80
2023/10/24 07:15:43;;;;;;;17.80;16.60;;;11.10;99.90;;;;;;4920953;29;20229;-80
2023/10/24 07:18:12;;;;;;;18.00;16.70;;;11.20;99.90;;;;;;4918053;29;20200;-79
2023/10/24 07:20:50;;;;;;;18.30;17.07;;;11.20;99.90;;;;;;4902705;29;20681;-78
2023/10/24 07:23:19;;;;;;;17.97;16.77;;;11.20;99.90;;;;;;4917889;29;20208;-79
2023/10/24 07:25:46;;;;;;;17.43;16.33;;;11.20;99.90;;;;;;4902136;29;20240;-79
2023/10/24 07:28:13;;;;;;;17.57;16.47;;;11.20;99.90;;;;;;4930460;29;20239;-79
2023/10/24 07:30:42;;;;;;;18.03;16.73;;;11.20;99.90;;;;;;4896862;29;20266;-80
2023/10/24 07:33:09;;;;;;;18.43;16.93;;;11.20;99.90;;;;;;4896553;29;20214;-79
2023/10/24 07:35:36;;;;;;;16.93;15.80;;;11.20;99.90;;;;;;4895520;29;20255;-80
2023/10/24 07:38:04;;;;;;;18.17;16.87;;;11.30;99.90;;;;;;4895983;29;20212;-79
2023/10/24 07:40:32;;;;;;;18.00;16.80;;;11.30;99.90;;;;;;4928634;29;20260;-79
2023/10/24 07:42:59;;;;;;;17.27;16.07;;;11.30;99.90;;;;;;4913398;29;20205;-79
2023/10/24 07:45:26;;;;;;;17.90;16.70;;;11.30;99.90;;;;;;4914358;29;20233;-79
2023/10/24 07:47:53;;;;;;;18.10;16.73;;;11.30;99.90;;;;;;4895349;29;20512;-80
2023/10/24 07:50:20;;;;;;;18.17;16.67;;;11.40;99.90;;;;;;4928829;29;20339;-79
2023/10/24 07:52:47;;;;;;;18.30;17.03;;;11.40;99.90;;;;;;4897111;29;20275;-78
2023/10/24 07:55:13;;;;;;;18.97;17.77;;;11.50;99.90;;;;;;4912646;29;20225;-82
2023/10/24 08:13:00;;;;;;;17.10;15.97;;;11.60;99.90;;;;;;3584711;23;20534;-81
2023/10/24 08:20:43;;;;;;;16.87;15.70;;;11.60;99.90;;;;;;4892496;29;20304;-78
2023/10/24 08:23:10;;;;;;;17.13;16.03;;;11.60;99.90;;;;;;4894097;29;20203;-78
2023/10/24 08:25:37;;;;;;;17.17;15.87;;;11.60;99.90;;;;;;4880697;29;20712;-78
2023/10/24 08:28:06;;;;;;;17.03;16.00;;;11.70;99.90;;;;;;4893753;29;20304;-78
2023/10/24 08:30:33;;;;;;;17.93;16.63;;;11.60;99.90;;;;;;4892826;29;20201;-78
2023/10/24 08:33:00;;;;;;;18.60;17.10;;;11.70;99.90;;;;;;4917062;23;20223;-79
2023/10/24 08:35:27;;;;;;;18.17;16.67;;;11.60;99.90;;;;;;4941399;29;20221;-79
2023/10/24 08:37:54;;;;;;;18.30;17.10;;;11.60;99.90;;;;;;4947579;29;20210;-79
2023/10/24 08:40:21;;;;;;;17.10;16.00;;;11.60;99.90;;;;;;4946767;29;20212;-80
2023/10/24 08:42:47;;;;;;;18.53;17.23;;;11.50;99.90;;;;;;4935055;29;20435;-80
2023/10/24 08:45:18;;;;;;;18.50;17.30;;;11.50;99.90;;;;;;4931390;29;20228;-79
2023/10/24 08:47:47;;;;;;;17.97;16.80;;;11.60;99.90;;;;;;4930926;29;20205;-79
2023/10/24 08:50:14;;;;;;;19.43;18.13;;;11.60;99.90;;;;;;4930027;29;20205;-77
2023/10/24 08:52:41;;;;;;;19.00;17.50;;;11.60;99.90;;;;;;4930593;29;20716;-79
2023/10/24 08:55:08;;;;;;;18.87;17.57;;;11.60;99.90;;;;;;4930815;29;20229;-79
2023/10/24 08:57:40;;;;;;;19.30;18.10;;;11.60;99.90;;;;;;4931827;29;20204;-78
2023/10/24 09:00:10;;;;;;;18.50;17.30;;;11.60;99.90;;;;;;4930018;29;20586;-78
2023/10/24 09:02:39;;;;;;;19.40;17.90;;;11.60;99.90;;;;;;4928777;29;20584;-79
2023/10/24 09:05:09;;;;;;;18.87;17.47;;;11.70;99.90;;;;;;4929899;29;20245;-78
2023/10/24 09:07:36;;;;;;;18.50;17.20;;;11.70;99.90;;;;;;4931110;29;21468;-78
2023/10/24 09:10:04;;;;;;;19.17;17.70;;;11.80;99.90;;;;;;4930714;29;20264;-78
2023/10/24 09:12:31;;;;;;;18.13;16.77;;;11.80;99.90;;;;;;4922514;29;20235;-79
2023/10/24 09:14:59;;;;;;;19.03;17.73;;;11.80;99.90;;;;;;4928909;29;20288;-78
2023/10/24 09:17:26;;;;;;;19.20;17.83;;;11.90;99.90;;;;;;4929575;29;20629;-79
2023/10/24 09:19:56;;;;;;;19.60;18.30;;;11.90;99.90;;;;;;4917346;29;20205;-78
2023/10/24 09:22:23;;;;;;;19.37;17.87;;;11.90;99.90;;;;;;4931057;29;20204;-78
2023/10/24 09:24:51;;;;;;;19.27;18.07;;;12.00;99.90;;;;;;4932949;29;20236;-79
2023/10/24 09:27:23;;;;;;;20.20;18.60;;;12.00;99.90;;;;;;4921221;29;20555;-79
2023/10/24 09:29:51;;;;;;;18.77;17.43;;;12.10;99.90;;;;;;4920743;29;20316;-78
2023/10/24 09:32:18;;;;;;;18.53;17.23;;;12.10;99.90;;;;;;4921363;29;20650;-79
2023/10/24 09:34:46;;;;;;;18.53;17.33;;;12.20;99.90;;;;;;4921530;29;20265;-79
2023/10/24 09:37:15;;;;;;;17.87;16.67;;;12.30;99.90;;;;;;4925392;29;20600;-79
2023/10/24 09:39:56;;;;;;;18.80;17.53;;;12.30;99.90;;;;;;4918172;29;20693;-79
2023/10/24 09:42:26;;;;;;;18.17;16.97;;;12.40;99.90;;;;;;4919515;29;20267;-79
2023/10/24 09:44:55;;;;;;;19.00;17.70;;;12.40;99.90;;;;;;4914443;29;20234;-78
2023/10/24 09:47:23;;;;;;;15.10;13.90;;;12.50;99.90;;;;;;4921424;29;20211;-79
2023/10/24 09:49:51;;;;;;;15.63;14.43;;;12.50;99.90;;;;;;4922984;29;20229;-78
2023/10/24 09:52:21;;;;;;;11.43;10.60;;;12.60;99.90;;;;;;4922695;29;20568;-79
2023/10/24 09:54:49;;;;;;;18.13;16.87;;;12.70;99.90;;;;;;4916257;29;20223;-78
2023/10/24 09:57:18;;;;;;;17.70;16.57;;;12.80;99.90;;;;;;4920313;29;20207;-78
2023/10/24 09:59:46;;;;;;;14.93;13.77;;;12.80;99.90;;;;;;4907621;29;20295;-78
2023/10/24 10:02:14;;;;;;;9.13;6.87;;;12.80;99.90;;;;;;4918571;29;20557;-78
2023/10/24 10:04:41;;;;;;;17.93;16.57;;;12.90;99.90;;;;;;4918372;29;20234;-78
2023/10/24 10:07:11;;;;;;;17.40;16.27;;;12.90;99.90;;;;;;4912289;29;20212;-78
2023/10/24 10:09:43;;;;;;;19.43;18.07;;;12.90;99.90;;;;;;4931487;29;20219;-79
2023/10/24 10:12:13;;;;;;;18.77;17.57;;;13.00;99.90;;;;;;4929422;29;20274;-78
2023/10/24 10:14:50;;;;;;;20.50;19.10;;;13.00;99.90;;;;;;4930383;29;20246;-79
2023/10/24 10:17:26;;;;;;;18.30;17.10;;;13.10;99.90;;;;;;4929175;29;20575;-78
2023/10/24 10:20:12;;;;;;;19.47;18.07;;;13.10;99.90;;;;;;4930931;29;20840;-78
2023/10/24 10:22:54;;;;;;;8.93;8.03;;;13.10;99.90;;;;;;4930855;29;20760;-79
2023/10/24 10:25:49;;;;;;;8.43;7.70;;;13.20;99.90;;;;;;4929934;29;20211;-78
2023/10/24 10:28:27;;;;;;;8.70;7.37;;;13.20;99.90;;;;;;4928669;29;20697;-79
2023/10/24 10:31:02;;;;;;;19.53;18.17;;;13.20;99.90;;;;;;4914825;29;20239;-78
2023/10/24 10:33:29;;;;;;;18.60;17.30;;;13.30;99.90;;;;;;4930103;29;20238;-78
2023/10/24 10:35:58;;;;;;;17.87;16.70;;;13.30;99.90;;;;;;4928226;29;20212;-78
2023/10/24 10:38:41;;;;;;;17.77;16.47;;;13.40;99.90;;;;;;4929385;29;20739;-78
2023/10/24 10:41:42;;;;;;;16.43;15.33;;;13.40;99.90;;;;;;4927629;29;20207;-78
2023/10/24 10:44:47;;;;;;;15.90;14.70;;;13.50;99.90;;;;;;4928313;29;20234;-78
2023/10/24 10:47:15;;;;;;;16.90;15.70;;;13.50;99.90;;;;;;4908893;29;20253;-78
2023/10/24 10:49:51;;;;;;;16.70;15.50;;;13.50;99.90;;;;;;4931375;29;20251;-78
2023/10/24 10:52:44;;;;;;;16.67;15.50;;;13.50;99.90;;;;;;4928136;29;20235;-78
2023/10/24 10:55:34;;;;;;;15.73;14.63;;;13.60;99.90;;;;;;4927041;29;20238;-78
2023/10/24 10:58:11;;;;;;;9.20;8.30;;;13.60;99.90;;;;;;4927508;29;20806;-78
2023/10/24 11:01:02;;;;;;;6.60;6.00;;;13.60;99.90;;;;;;4927578;29;20633;-78
2023/10/24 11:03:44;;;;;;;6.33;5.73;;;13.60;99.90;;;;;;4914209;29;20231;-78
2023/10/24 11:06:14;;;;;;;6.60;5.23;;;13.60;99.90;;;;;;4928320;29;20290;-78
2023/10/24 11:08:42;;;;;;;6.23;5.20;;;13.60;99.90;;;;;;4929285;29;20204;-79
2023/10/24 11:11:10;;;;;;;7.30;5.70;;;13.60;99.90;;;;;;4913649;29;20215;-79
2023/10/24 11:13:43;;;;;;;14.73;13.63;;;13.60;99.90;;;;;;4926060;29;20798;-78
2023/10/24 11:16:11;;;;;;;11.50;10.63;;;13.60;99.90;;;;;;4925792;29;20207;-79
2023/10/24 11:18:40;;;;;;;12.93;12.03;;;13.60;99.90;;;;;;4929620;29;20262;-79
2023/10/24 11:21:09;;;;;;;14.00;13.00;;;13.70;99.90;;;;;;4912952;29;20209;-79
2023/10/24 11:23:37;;;;;;;14.53;13.63;;;13.70;99.90;;;;;;4925288;29;20310;-79
2023/10/24 11:26:04;;;;;;;15.50;14.57;;;13.70;99.90;;;;;;4927411;29;20223;-79
2023/10/24 11:28:32;;;;;;;14.67;13.67;;;13.70;99.90;;;;;;4911767;29;20212;-78
2023/10/24 11:31:19;;;;;;;14.50;13.60;;;13.80;99.90;;;;;;4926321;29;20215;-79
2023/10/24 11:33:47;;;;;;;14.03;13.13;;;13.80;99.90;;;;;;4926072;29;20297;-79
2023/10/24 11:36:14;;;;;;;15.03;14.03;;;13.80;99.90;;;;;;4926138;29;20207;-80
2023/10/24 11:38:40;;;;;;;14.50;13.50;;;13.80;99.90;;;;;;4927658;29;20197;-78
2023/10/24 11:41:07;;;;;;;14.43;13.53;;;13.80;99.90;;;;;;4927824;29;20255;-78
2023/10/24 11:43:34;;;;;;;12.70;11.83;;;13.80;99.90;;;;;;4926884;29;20224;-79
2023/10/24 11:46:02;;;;;;;13.80;12.60;;;13.80;99.90;;;;;;4926638;29;20208;-79
2023/10/24 11:48:29;;;;;;;13.83;12.90;;;13.80;99.90;;;;;;4927750;29;20214;-78
2023/10/24 11:50:57;;;;;;;13.50;12.70;;;13.70;99.90;;;;;;4926156;29;20216;-79
2023/10/24 11:53:24;;;;;;;11.17;10.47;;;13.70;99.90;;;;;;4927352;29;20726;-79
2023/10/24 11:55:52;;;;;;;9.00;8.40;;;13.70;99.90;;;;;;4929289;29;20200;-79
2023/10/24 11:58:21;;;;;;;9.77;9.10;;;13.70;99.90;;;;;;4926330;29;20211;-78
2023/10/24 12:00:47;;;;;;;9.70;9.10;;;13.70;99.90;;;;;;4929504;29;20218;-78
2023/10/24 12:03:16;;;;;;;11.17;10.57;;;13.70;99.90;;;;;;4928640;29;20298;-79
2023/10/24 12:05:52;;;;;;;10.40;9.77;;;13.70;99.90;;;;;;4928597;29;20199;-78
2023/10/24 12:08:23;;;;;;;9.03;8.43;;;13.70;99.90;;;;;;4912504;29;20302;-78
2023/10/24 12:10:54;;;;;;;8.23;7.73;;;13.70;99.90;;;;;;4926649;29;20287;-78
2023/10/24 12:13:23;;;;;;;6.83;6.43;;;13.70;99.90;;;;;;4927436;29;20617;-78
2023/10/24 12:15:50;;;;;;;7.23;6.67;;;13.70;99.90;;;;;;4927139;29;20214;-78
2023/10/24 12:18:18;;;;;;;7.93;7.23;;;13.70;99.90;;;;;;4913197;29;20212;-78
2023/10/24 12:20:45;;;;;;;9.00;8.40;;;13.70;99.90;;;;;;4926260;29;20611;-78
2023/10/24 12:23:12;;;;;;;9.37;8.67;;;13.70;99.90;;;;;;4929481;29;20247;-78
2023/10/24 12:25:39;;;;;;;9.30;8.70;;;13.80;99.90;;;;;;4928068;29;20231;-79
2023/10/24 12:28:06;;;;;;;8.70;8.10;;;13.80;99.90;;;;;;4928474;29;20700;-79
2023/10/24 12:30:33;;;;;;;7.30;6.90;;;13.80;99.90;;;;;;4926052;29;20969;-78
2023/10/24 12:32:59;;;;;;;6.20;5.80;;;13.80;99.90;;;;;;4928800;29;20200;-79
2023/10/24 12:35:28;;;;;;;7.80;7.20;;;13.80;99.90;;;;;;4928398;29;20209;-78
2023/10/24 12:37:55;;;;;;;8.33;7.83;;;13.90;99.90;;;;;;4927876;29;20215;-78
2023/10/24 12:40:21;;;;;;;9.80;9.20;;;13.90;99.90;;;;;;4927174;29;20196;-78
2023/10/24 12:42:48;;;;;;;9.40;8.90;;;13.90;99.90;;;;;;4927591;29;20259;-78
2023/10/24 12:45:15;;;;;;;11.00;10.40;;;14.00;99.90;;;;;;4927070;29;20230;-78
2023/10/24 12:47:42;;;;;;;10.40;9.77;;;14.00;99.90;;;;;;4925650;29;20208;-78
2023/10/24 12:50:10;;;;;;;13.30;12.60;;;14.10;99.90;;;;;;4926576;29;20215;-78
2023/10/24 12:52:38;;;;;;;11.63;10.93;;;14.10;99.90;;;;;;4924878;29;20712;-78
2023/10/24 12:55:05;;;;;;;11.57;10.87;;;14.10;99.90;;;;;;4925741;29;20237;-78
2023/10/24 12:57:32;;;;;;;10.47;9.87;;;14.20;99.90;;;;;;4927245;29;20568;-78
2023/10/24 12:59:59;;;;;;;12.10;11.40;;;14.20;99.90;;;;;;4925302;29;20210;-78
2023/10/24 13:02:26;;;;;;;13.30;12.50;;;14.30;99.90;;;;;;4925078;29;20215;-79
2023/10/24 13:04:52;;;;;;;12.70;12.00;;;14.20;99.90;;;;;;4926969;29;20224;-78